Time;durP1;ratioP1;P1;durP2;ratioP2;P2;SDS_P1;SDS_P2;PMS_P1;PMS_P2;Temp;Humidity;BMP_temperature;BMP_pressure;BME280_temperature;BME280_humidity;BME280_pressure;Samples;Min_cycle;Max_cycle;Signal;HPM_P1;HPM_P2
2021/11/12 00:13:59;;;;;;;21.20;17.10;;;;;;;;;;5034732;28;20852;-67
2021/11/12 00:16:27;;;;;;;19.13;15.47;;;;;;;;;;5044956;28;20410;-66
2021/11/12 00:18:53;;;;;;;17.30;14.40;;;;;;;;;;5032671;28;20415;-66
2021/11/12 00:21:20;;;;;;;17.87;14.67;;;;;;;;;;5032502;28;20426;-66
2021/11/12 00:23:46;;;;;;;19.57;14.87;;;;;;;;;;5033120;28;20845;-65
2021/11/12 00:26:12;;;;;;;21.23;14.53;;;;;;;;;;5035980;28;20459;-70
2021/11/12 00:28:49;;;;;;;18.70;14.97;;;;;;;;;;5032584;28;20422;-67
2021/11/12 00:31:31;;;;;;;19.93;14.63;;;;;;;;;;5032668;28;20386;-67
2021/11/12 00:34:35;;;;;;;21.10;15.53;;;;;;;;;;5033081;28;20386;-68
2021/11/12 00:44:36;;;;;;;20.93;16.03;;;;;;;;;;5052524;28;20390;-66
2021/11/12 00:47:08;;;;;;;24.67;17.10;;;;;;;;;;5052411;28;20445;-67
2021/11/12 00:49:38;;;;;;;22.90;17.37;;;;;;;;;;5053967;28;20435;-66
2021/11/12 00:52:15;;;;;;;35.03;15.73;;;;;;;;;;5056212;28;20822;-66
2021/11/12 00:54:41;;;;;;;21.00;16.77;;;;;;;;;;5056231;28;20378;-66
2021/11/12 00:57:08;;;;;;;22.10;15.53;;;;;;;;;;5055440;28;20887;-66
2021/11/12 00:59:34;;;;;;;22.60;15.20;;;;;;;;;;5055796;28;20417;-66
2021/11/12 01:02:00;;;;;;;19.70;14.93;;;;;;;;;;5055906;28;20440;-66
2021/11/12 01:04:26;;;;;;;20.70;15.80;;;;;;;;;;5055846;28;20420;-67
2021/11/12 01:06:52;;;;;;;19.83;15.43;;;;;;;;;;5055536;28;20571;-66
2021/11/12 01:09:20;;;;;;;19.60;14.33;;;;;;;;;;5055768;28;20406;-67
2021/11/12 01:11:47;;;;;;;17.03;13.20;;;;;;;;;;5055708;28;20915;-66
2021/11/12 01:14:14;;;;;;;17.23;14.63;;;;;;;;;;5055458;28;20408;-66
2021/11/12 01:16:40;;;;;;;18.60;14.20;;;;;;;;;;5047580;28;20419;-66
2021/11/12 01:19:08;;;;;;;17.10;14.93;;;;;;;;;;5055450;28;20438;-67
2021/11/12 01:21:34;;;;;;;22.93;14.90;;;;;;;;;;5055369;28;20451;-66
2021/11/12 01:24:00;;;;;;;25.23;15.70;;;;;;;;;;5055302;28;20886;-67
2021/11/12 01:26:28;;;;;;;16.00;14.30;;;;;;;;;;5055315;28;20977;-66
2021/11/12 01:28:55;;;;;;;13.07;11.67;;;;;;;;;;5041752;28;20419;-66
2021/11/12 01:31:28;;;;;;;17.77;13.23;;;;;;;;;;5034054;28;20410;-67
2021/11/12 01:33:54;;;;;;;17.83;13.73;;;;;;;;;;5035371;28;20387;-67
2021/11/12 01:36:30;;;;;;;17.60;13.33;;;;;;;;;;5035202;28;20399;-66
2021/11/12 01:38:59;;;;;;;18.80;14.63;;;;;;;;;;5049298;28;20454;-66
2021/11/12 01:41:26;;;;;;;24.60;15.43;;;;;;;;;;5055178;28;20406;-66
2021/11/12 01:43:56;;;;;;;19.43;13.73;;;;;;;;;;5054995;28;20410;-65
2021/11/12 01:46:28;;;;;;;19.07;14.37;;;;;;;;;;5055086;28;20445;-66
2021/11/12 01:49:42;;;;;;;16.67;14.37;;;;;;;;;;5054658;28;20417;-66
2021/11/12 01:51:45;;;;;;;20.83;15.90;;;;;;;;;;5050856;28;20445;-66
2021/11/12 01:59:20;;;;;;;18.03;13.17;;;;;;;;;;5054944;28;20418;-67
2021/11/12 02:01:47;;;;;;;15.67;13.30;;;;;;;;;;5054248;28;20432;-66
2021/11/12 02:04:17;;;;;;;16.80;14.43;;;;;;;;;;5055115;28;20409;-66
2021/11/12 02:06:43;;;;;;;19.07;15.07;;;;;;;;;;5054715;28;20487;-66
2021/11/12 02:09:21;;;;;;;17.83;14.60;;;;;;;;;;5054262;28;20410;-66
2021/11/12 02:11:52;;;;;;;17.30;15.10;;;;;;;;;;5041217;28;20446;-66
2021/11/12 02:14:20;;;;;;;16.40;13.53;;;;;;;;;;5037584;28;20406;-65
2021/11/12 02:16:59;;;;;;;15.50;12.90;;;;;;;;;;5054828;28;20780;-66
2021/11/12 02:19:26;;;;;;;13.50;11.80;;;;;;;;;;5054123;28;20410;-67
2021/11/12 02:22:11;;;;;;;14.30;12.80;;;;;;;;;;5054211;28;20453;-66
2021/11/12 02:24:41;;;;;;;12.77;11.00;;;;;;;;;;5054463;28;20843;-66
2021/11/12 02:27:12;;;;;;;15.07;12.90;;;;;;;;;;5053922;28;20954;-68
2021/11/12 02:29:51;;;;;;;15.57;13.47;;;;;;;;;;5034161;28;20430;-66
2021/11/12 02:32:22;;;;;;;16.20;13.80;;;;;;;;;;5034367;28;20505;-66
2021/11/12 02:34:50;;;;;;;14.63;12.63;;;;;;;;;;5033997;28;20907;-66
2021/11/12 02:37:16;;;;;;;14.20;12.53;;;;;;;;;;5034059;28;20399;-66
2021/11/12 02:39:43;;;;;;;16.67;12.73;;;;;;;;;;5051729;28;20794;-66
2021/11/12 02:42:09;;;;;;;15.53;12.90;;;;;;;;;;5054014;28;20884;-66
2021/11/12 02:44:36;;;;;;;15.93;13.20;;;;;;;;;;5053647;28;20446;-66
2021/11/12 02:47:02;;;;;;;14.63;12.97;;;;;;;;;;5053719;28;20556;-65
2021/11/12 02:49:29;;;;;;;21.80;17.30;;;;;;;;;;5053676;28;20825;-66
2021/11/12 02:51:55;;;;;;;16.70;14.90;;;;;;;;;;5053964;28;20418;-65
2021/11/12 02:54:22;;;;;;;18.57;15.30;;;;;;;;;;5054119;28;20935;-66
2021/11/12 02:56:52;;;;;;;18.10;14.67;;;;;;;;;;5054422;28;20442;-66
2021/11/12 02:59:18;;;;;;;18.80;16.60;;;;;;;;;;5054047;28;20445;-66
2021/11/12 03:01:47;;;;;;;20.40;15.47;;;;;;;;;;5053459;28;20504;-66
2021/11/12 03:04:14;;;;;;;15.90;13.60;;;;;;;;;;5053576;28;20456;-66
2021/11/12 03:06:40;;;;;;;16.20;14.40;;;;;;;;;;5053458;28;20514;-66
2021/11/12 03:09:07;;;;;;;18.10;13.90;;;;;;;;;;5053389;28;20409;-66
2021/11/12 03:11:35;;;;;;;15.63;13.77;;;;;;;;;;5053608;28;20540;-65
2021/11/12 03:14:01;;;;;;;14.83;13.37;;;;;;;;;;5053125;28;20401;-65
2021/11/12 03:16:27;;;;;;;16.37;13.17;;;;;;;;;;5053101;28;20414;-65
2021/11/12 03:18:55;;;;;;;15.83;14.23;;;;;;;;;;5053404;28;20406;-65
2021/11/12 03:21:23;;;;;;;14.43;12.43;;;;;;;;;;5033317;28;20422;-65
2021/11/12 03:26:40;;;;;;;15.70;13.13;;;;;;;;;;5033724;28;20445;-66
2021/11/12 03:59:45;;;;;;;16.13;13.87;;;;;;;;;;5053713;28;20388;-67
2021/11/12 04:21:11;;;;;;;15.13;13.50;;;;;;;;;;5054043;28;20409;-66
2021/11/12 05:11:26;;;;;;;13.43;11.00;;;;;;;;;;5056134;28;20409;-65
2021/11/12 05:25:46;;;;;;;12.70;11.03;;;;;;;;;;5055473;28;20425;-66
2021/11/12 05:52:15;;;;;;;14.93;11.87;;;;;;;;;;5055222;28;20933;-66
2021/11/12 05:57:27;;;;;;;13.23;11.83;;;;;;;;;;5035369;28;20422;-66
2021/11/12 05:59:54;;;;;;;14.10;12.23;;;;;;;;;;5035228;28;20436;-65
2021/11/12 06:02:20;;;;;;;12.93;11.30;;;;;;;;;;5035159;28;20513;-66
2021/11/12 06:04:46;;;;;;;16.27;11.87;;;;;;;;;;5053528;28;20801;-65
2021/11/12 06:07:12;;;;;;;18.27;12.73;;;;;;;;;;5054834;28;20453;-65
2021/11/12 06:09:38;;;;;;;15.53;11.50;;;;;;;;;;5054690;28;20395;-66
2021/11/12 06:12:08;;;;;;;14.93;12.10;;;;;;;;;;5053187;28;20886;-67
2021/11/12 06:14:34;;;;;;;13.50;11.40;;;;;;;;;;5034796;28;20765;-65
2021/11/12 06:17:00;;;;;;;12.10;10.83;;;;;;;;;;5047449;28;20441;-66
2021/11/12 06:19:26;;;;;;;14.93;12.33;;;;;;;;;;5054333;28;20398;-65
2021/11/12 06:21:52;;;;;;;13.03;11.70;;;;;;;;;;5053820;28;20452;-67
2021/11/12 06:24:18;;;;;;;12.77;10.60;;;;;;;;;;5041217;28;20912;-66
2021/11/12 06:26:45;;;;;;;13.17;11.63;;;;;;;;;;5034127;28;20525;-66
2021/11/12 06:29:11;;;;;;;12.93;11.53;;;;;;;;;;5034276;28;20426;-66
2021/11/12 06:31:37;;;;;;;12.77;11.37;;;;;;;;;;5034166;28;20419;-65
2021/11/12 06:34:03;;;;;;;19.93;11.90;;;;;;;;;;5039179;28;20457;-66
2021/11/12 06:36:29;;;;;;;13.20;10.80;;;;;;;;;;5033938;28;20403;-66
2021/11/12 06:38:56;;;;;;;14.37;12.37;;;;;;;;;;5033933;28;20417;-66
2021/11/12 06:42:11;;;;;;;11.87;10.37;;;;;;;;;;5034163;28;20415;-66
2021/11/12 06:49:33;;;;;;;14.53;11.03;;;;;;;;;;5034547;28;20394;-67
2021/11/12 06:51:59;;;;;;;17.33;12.20;;;;;;;;;;5034047;28;20477;-67
2021/11/12 06:54:25;;;;;;;14.87;11.50;;;;;;;;;;5047256;28;20452;-67
2021/11/12 06:56:51;;;;;;;13.80;12.07;;;;;;;;;;5053685;28;20402;-66
2021/11/12 06:59:17;;;;;;;15.60;11.70;;;;;;;;;;5053971;28;20414;-65
2021/11/12 07:01:43;;;;;;;16.03;10.87;;;;;;;;;;5053692;28;20417;-67
2021/11/12 07:04:09;;;;;;;17.13;12.37;;;;;;;;;;5053780;28;20603;-66
2021/11/12 07:06:36;;;;;;;15.40;11.00;;;;;;;;;;5053521;28;20454;-66
2021/11/12 07:09:04;;;;;;;13.50;9.97;;;;;;;;;;5053509;28;20402;-67
2021/11/12 07:11:30;;;;;;;13.43;11.30;;;;;;;;;;5053663;28;20505;-66
2021/11/12 07:13:56;;;;;;;13.07;11.03;;;;;;;;;;5044800;28;20426;-67
2021/11/12 07:16:22;;;;;;;19.20;13.10;;;;;;;;;;5033665;28;20818;-66
2021/11/12 07:18:48;;;;;;;14.03;11.57;;;;;;;;;;5033536;28;20485;-66
2021/11/12 07:21:14;;;;;;;20.63;12.53;;;;;;;;;;5033488;28;20403;-66
2021/11/12 07:23:40;;;;;;;13.97;12.47;;;;;;;;;;5043329;28;20426;-66
2021/11/12 07:26:06;;;;;;;17.90;12.77;;;;;;;;;;5033532;28;20753;-66
2021/11/12 07:28:32;;;;;;;18.47;13.57;;;;;;;;;;5033464;28;20402;-65
2021/11/12 07:31:00;;;;;;;18.17;12.93;;;;;;;;;;5033411;28;20407;-66
2021/11/12 07:33:26;;;;;;;18.67;13.53;;;;;;;;;;5046030;28;20433;-65
2021/11/12 07:36:04;;;;;;;18.13;12.60;;;;;;;;;;5053119;28;20449;-65
2021/11/12 07:38:45;;;;;;;19.13;13.30;;;;;;;;;;5053686;28;20447;-65
2021/11/12 07:49:01;;;;;;;10.33;9.20;;;;;;;;;;5051533;28;20410;-65
2021/11/12 07:51:27;;;;;;;15.40;10.37;;;;;;;;;;5052102;28;20426;-64
2021/11/12 07:53:54;;;;;;;23.50;10.93;;;;;;;;;;5051706;28;20414;-64
2021/11/12 07:56:20;;;;;;;12.30;10.20;;;;;;;;;;5052505;28;20456;-64
2021/11/12 07:58:47;;;;;;;13.43;9.70;;;;;;;;;;5053197;28;20425;-66
2021/11/12 08:01:14;;;;;;;15.10;9.90;;;;;;;;;;5053334;28;20422;-66
2021/11/12 08:03:41;;;;;;;11.77;9.80;;;;;;;;;;5055148;28;20793;-66
2021/11/12 08:06:11;;;;;;;12.97;10.43;;;;;;;;;;5056133;28;20769;-67
2021/11/12 08:08:39;;;;;;;10.33;8.77;;;;;;;;;;5050956;28;20825;-68
2021/11/12 08:11:17;;;;;;;12.00;8.80;;;;;;;;;;5052038;28;20471;-67
2021/11/12 08:13:51;;;;;;;9.47;8.17;;;;;;;;;;5046132;28;20926;-71
2021/11/12 08:19:03;;;;;;;12.00;10.13;;;;;;;;;;5055191;28;20395;-66
2021/11/12 08:27:16;;;;;;;15.07;10.97;;;;;;;;;;5004639;28;20555;-66
2021/11/12 08:43:00;;;;;;;12.13;10.10;;;;;;;;;;5058566;28;20408;-65
2021/11/12 08:45:33;;;;;;;11.57;10.20;;;;;;;;;;5051332;28;20176;-65
2021/11/12 08:48:04;;;;;;;13.97;10.53;;;;;;;;;;5055552;28;20441;-65
2021/11/12 08:50:30;;;;;;;14.87;10.80;;;;;;;;;;5054654;28;20434;-66
2021/11/12 08:53:30;;;;;;;11.50;10.07;;;;;;;;;;5049525;28;20453;-64
2021/11/12 08:55:49;;;;;;;14.43;10.57;;;;;;;;;;5053491;28;20422;-67
2021/11/12 08:58:15;;;;;;;13.57;10.67;;;;;;;;;;5062607;28;20450;-67
2021/11/12 09:00:42;;;;;;;16.67;11.67;;;;;;;;;;5040340;28;20894;-67
2021/11/12 09:03:09;;;;;;;13.30;10.03;;;;;;;;;;5049940;28;20503;-70
2021/11/12 09:05:35;;;;;;;17.97;10.70;;;;;;;;;;5043994;28;20455;-70
2021/11/12 09:08:01;;;;;;;13.40;9.47;;;;;;;;;;5053856;28;20448;-70
2021/11/12 09:10:28;;;;;;;11.30;10.10;;;;;;;;;;5040485;28;20423;-69
2021/11/12 09:13:00;;;;;;;14.50;11.10;;;;;;;;;;5050959;28;20501;-67
2021/11/12 09:15:30;;;;;;;15.80;10.67;;;;;;;;;;5039838;28;20171;-69
2021/11/12 09:17:57;;;;;;;12.80;11.30;;;;;;;;;;5054124;28;20409;-67
2021/11/12 09:20:24;;;;;;;11.70;10.47;;;;;;;;;;5053994;28;20487;-67
2021/11/12 09:22:52;;;;;;;12.93;10.20;;;;;;;;;;5054918;28;20448;-68
2021/11/12 09:25:18;;;;;;;10.97;9.80;;;;;;;;;;5047723;28;20864;-68
2021/11/12 09:27:45;;;;;;;13.40;10.63;;;;;;;;;;5063944;28;20452;-67
2021/11/12 09:30:12;;;;;;;12.70;9.20;;;;;;;;;;5074257;28;20697;-69
2021/11/12 09:32:38;;;;;;;10.80;8.63;;;;;;;;;;5043288;28;20672;-71
2021/11/12 09:35:05;;;;;;;13.73;9.63;;;;;;;;;;5047426;28;20452;-69
2021/11/12 09:37:31;;;;;;;13.03;10.37;;;;;;;;;;5054617;28;20410;-70
2021/11/12 09:39:58;;;;;;;12.47;9.63;;;;;;;;;;5070650;28;20428;-69
2021/11/12 09:42:25;;;;;;;11.53;9.97;;;;;;;;;;5055039;28;20444;-70
2021/11/12 09:44:52;;;;;;;11.33;10.13;;;;;;;;;;5053826;28;20413;-69
2021/11/12 09:47:25;;;;;;;13.10;10.20;;;;;;;;;;5046248;28;20787;-69
2021/11/12 09:49:57;;;;;;;12.85;9.40;;;;;;;;;;5053438;28;20488;-61
2021/11/12 09:52:27;;;;;;;14.93;11.33;;;;;;;;;;5049772;28;20233;-68
2021/11/12 09:54:53;;;;;;;13.00;9.40;;;;;;;;;;5054255;28;20420;-71
2021/11/12 09:57:20;;;;;;;13.47;11.23;;;;;;;;;;5054346;28;20945;-71
2021/11/12 09:59:50;;;;;;;11.80;10.03;;;;;;;;;;5054453;28;20485;-72
2021/11/12 10:02:17;;;;;;;14.67;10.07;;;;;;;;;;5053745;28;20853;-74
2021/11/12 10:04:43;;;;;;;12.23;10.50;;;;;;;;;;5051586;28;20418;-73
2021/11/12 10:07:15;;;;;;;11.80;9.33;;;;;;;;;;5042681;28;20486;-70
2021/11/12 10:09:41;;;;;;;15.53;10.40;;;;;;;;;;5050959;28;20414;-70
2021/11/12 10:12:08;;;;;;;10.97;9.70;;;;;;;;;;5051015;28;20445;-70
2021/11/12 10:14:53;;;;;;;11.27;9.93;;;;;;;;;;5041523;28;20421;-73
2021/11/12 10:17:21;;;;;;;12.93;9.40;;;;;;;;;;5050917;28;20500;-71
2021/11/12 10:19:48;;;;;;;13.03;9.90;;;;;;;;;;5053147;28;20398;-66
2021/11/12 10:22:16;;;;;;;12.00;10.17;;;;;;;;;;5048780;28;20930;-69
2021/11/12 10:24:42;;;;;;;10.80;9.67;;;;;;;;;;5053397;28;20468;-69
2021/11/12 10:27:13;;;;;;;13.03;10.43;;;;;;;;;;5051629;28;20457;-70
2021/11/12 10:29:48;;;;;;;12.23;9.37;;;;;;;;;;5050667;28;20850;-68
2021/11/12 10:32:18;;;;;;;10.70;9.07;;;;;;;;;;5052377;28;20433;-71
2021/11/12 10:34:45;;;;;;;16.70;9.93;;;;;;;;;;5044406;28;20414;-67
2021/11/12 10:37:13;;;;;;;12.47;10.00;;;;;;;;;;5052184;28;20442;-70
2021/11/12 10:39:40;;;;;;;12.13;9.93;;;;;;;;;;5051367;28;20441;-68
2021/11/12 10:42:16;;;;;;;11.63;10.17;;;;;;;;;;5053236;28;20459;-69
2021/11/12 10:44:47;;;;;;;11.40;10.10;;;;;;;;;;5045322;28;20979;-69
2021/11/12 10:47:14;;;;;;;11.80;10.60;;;;;;;;;;5047765;28;20871;-70
2021/11/12 10:49:42;;;;;;;12.53;11.23;;;;;;;;;;5052925;28;20425;-69
2021/11/12 10:52:27;;;;;;;14.40;11.40;;;;;;;;;;5046280;28;20421;-70
2021/11/12 10:55:14;;;;;;;12.97;11.50;;;;;;;;;;5051719;28;20953;-70
2021/11/12 10:57:46;;;;;;;15.50;10.93;;;;;;;;;;5051462;28;20459;-67
2021/11/12 11:00:12;;;;;;;12.60;11.30;;;;;;;;;;5053225;28;20409;-70
2021/11/12 11:02:38;;;;;;;14.70;10.93;;;;;;;;;;5067153;28;20440;-69
2021/11/12 11:05:09;;;;;;;13.57;10.07;;;;;;;;;;5038610;28;20616;-64
2021/11/12 11:07:36;;;;;;;13.90;10.80;;;;;;;;;;5043371;28;20543;-64
2021/11/12 11:10:03;;;;;;;11.90;9.57;;;;;;;;;;5046819;28;20773;-69
2021/11/12 11:12:48;;;;;;;12.27;10.23;;;;;;;;;;5048001;28;20482;-67
2021/11/12 11:15:19;;;;;;;14.23;10.33;;;;;;;;;;5037784;28;20497;-66
2021/11/12 11:17:50;;;;;;;19.27;15.60;;;;;;;;;;5037645;28;20433;-67
2021/11/12 11:20:21;;;;;;;13.10;10.93;;;;;;;;;;5046939;28;20863;-67
2021/11/12 11:22:57;;;;;;;11.27;9.67;;;;;;;;;;5051189;28;20461;-67
2021/11/12 11:25:27;;;;;;;13.30;10.77;;;;;;;;;;5037496;28;20997;-66
2021/11/12 11:27:54;;;;;;;14.80;11.00;;;;;;;;;;5046582;28;20961;-66
2021/11/12 11:30:21;;;;;;;14.27;11.77;;;;;;;;;;5038705;28;20415;-67
2021/11/12 11:32:48;;;;;;;19.30;10.33;;;;;;;;;;5033455;28;20452;-67
2021/11/12 11:35:14;;;;;;;12.67;11.13;;;;;;;;;;5035988;28;20418;-69
2021/11/12 11:37:42;;;;;;;14.30;11.80;;;;;;;;;;5048129;28;20979;-70
2021/11/12 11:40:12;;;;;;;13.53;10.80;;;;;;;;;;5044341;28;20468;-70
2021/11/12 11:42:39;;;;;;;13.73;11.40;;;;;;;;;;5051755;28;20438;-67
2021/11/12 11:45:05;;;;;;;13.40;10.93;;;;;;;;;;5041530;28;20426;-68
2021/11/12 11:47:33;;;;;;;18.37;11.47;;;;;;;;;;5044693;28;20552;-67
2021/11/12 11:49:59;;;;;;;13.03;9.83;;;;;;;;;;5041110;28;20489;-70
2021/11/12 11:52:29;;;;;;;11.67;10.00;;;;;;;;;;5067590;28;20436;-67
2021/11/12 11:54:56;;;;;;;13.77;10.83;;;;;;;;;;5050711;28;20421;-66
2021/11/12 11:57:23;;;;;;;12.60;10.40;;;;;;;;;;5048000;28;20870;-68
2021/11/12 11:59:49;;;;;;;12.97;10.53;;;;;;;;;;5051890;28;20418;-70
2021/11/12 12:02:17;;;;;;;15.20;10.33;;;;;;;;;;5047108;28;20452;-72
2021/11/12 12:04:50;;;;;;;14.40;11.20;;;;;;;;;;5043628;28;20979;-67
2021/11/12 12:07:17;;;;;;;16.30;11.43;;;;;;;;;;5043191;28;20438;-70
2021/11/12 12:09:53;;;;;;;15.50;11.67;;;;;;;;;;5049280;28;20471;-74
2021/11/12 12:12:28;;;;;;;13.87;10.43;;;;;;;;;;5042205;28;20453;-72
2021/11/12 12:14:56;;;;;;;12.57;9.70;;;;;;;;;;5043265;28;20411;-70
2021/11/12 12:17:27;;;;;;;14.00;10.70;;;;;;;;;;5047184;28;20428;-74
2021/11/12 12:33:56;;;;;;;15.43;10.30;;;;;;;;;;5051631;28;20426;-72
2021/11/12 13:22:17;;;;;;;14.23;10.90;;;;;;;;;;5055352;28;20544;-71
2021/11/12 13:24:39;;;;;;;15.20;10.77;;;;;;;;;;5062099;28;20404;-70
2021/11/12 13:27:06;;;;;;;17.03;11.67;;;;;;;;;;5046676;28;20454;-71
2021/11/12 13:29:33;;;;;;;17.67;11.90;;;;;;;;;;5051128;28;20445;-71
2021/11/12 13:32:04;;;;;;;15.02;11.60;;;;;;;;;;5044233;28;20821;-66
2021/11/12 13:34:30;;;;;;;15.43;10.70;;;;;;;;;;5053463;28;20625;-64
2021/11/12 13:36:56;;;;;;;18.77;12.50;;;;;;;;;;5043978;28;20422;-63
2021/11/12 13:39:23;;;;;;;14.20;10.83;;;;;;;;;;5049374;28;20914;-70
2021/11/12 13:41:49;;;;;;;17.80;11.30;;;;;;;;;;5049633;28;20818;-69
2021/11/12 13:44:16;;;;;;;14.77;11.40;;;;;;;;;;5050875;28;20465;-69
2021/11/12 13:46:42;;;;;;;16.13;13.00;;;;;;;;;;5047186;28;20431;-66
2021/11/12 13:49:08;;;;;;;13.83;10.60;;;;;;;;;;5052505;28;20630;-72
2021/11/12 13:51:34;;;;;;;17.80;13.20;;;;;;;;;;5061825;28;20428;-71
2021/11/12 13:54:03;;;;;;;14.70;12.33;;;;;;;;;;5059712;28;20501;-71
2021/11/12 13:56:33;;;;;;;14.87;11.30;;;;;;;;;;5055387;28;20417;-68
2021/11/12 13:59:06;;;;;;;19.07;12.57;;;;;;;;;;5061121;28;21137;-69
2021/11/12 14:01:33;;;;;;;16.60;12.70;;;;;;;;;;5062598;28;20910;-72
2021/11/12 14:04:01;;;;;;;14.60;11.53;;;;;;;;;;5053084;28;20454;-69
2021/11/12 14:06:35;;;;;;;13.53;11.27;;;;;;;;;;5052784;28;20417;-68
2021/11/12 14:09:03;;;;;;;16.40;11.40;;;;;;;;;;5051599;28;20433;-68
2021/11/12 14:11:30;;;;;;;14.10;11.23;;;;;;;;;;5056706;28;20428;-69
2021/11/12 14:13:59;;;;;;;20.40;12.07;;;;;;;;;;5057247;28;20408;-70
2021/11/12 14:16:33;;;;;;;16.23;11.53;;;;;;;;;;5060957;28;20419;-72
2021/11/12 14:19:27;;;;;;;16.00;11.50;;;;;;;;;;5056967;28;20910;-71
2021/11/12 14:37:51;;;;;;;16.40;11.67;;;;;;;;;;5052161;28;20898;-66
2021/11/12 14:43:32;;;;;;;17.43;12.07;;;;;;;;;;5043864;28;20436;-72
2021/11/12 14:46:06;;;;;;;16.10;11.83;;;;;;;;;;5038329;28;20418;-67
2021/11/12 14:48:41;;;;;;;20.23;12.43;;;;;;;;;;5052409;28;20920;-63
2021/11/12 14:51:14;;;;;;;14.93;10.83;;;;;;;;;;5044273;28;20425;-72
2021/11/12 14:58:43;;;;;;;16.60;12.90;;;;;;;;;;5057174;28;20187;-71
2021/11/12 15:01:11;;;;;;;25.03;13.40;;;;;;;;;;5056040;28;21008;-67
2021/11/12 15:03:41;;;;;;;18.90;13.47;;;;;;;;;;5053929;28;20508;-67
2021/11/12 15:06:08;;;;;;;15.50;12.73;;;;;;;;;;5057242;28;20419;-67
2021/11/12 15:08:41;;;;;;;16.57;13.27;;;;;;;;;;5056724;28;20202;-68
2021/11/12 15:11:09;;;;;;;15.80;11.70;;;;;;;;;;5055406;28;20820;-68
2021/11/12 15:13:36;;;;;;;15.60;12.20;;;;;;;;;;5050560;28;20449;-68
2021/11/12 15:16:08;;;;;;;22.20;12.77;;;;;;;;;;5053877;28;20437;-69
2021/11/12 15:18:34;;;;;;;20.93;13.27;;;;;;;;;;5055009;28;20409;-67
2021/11/12 15:21:04;;;;;;;17.70;12.98;;;;;;;;;;5059656;28;20427;-66
2021/11/12 15:26:27;;;;;;;19.93;14.23;;;;;;;;;;5061032;28;20328;-65
2021/11/12 15:29:02;;;;;;;18.23;14.33;;;;;;;;;;5048756;28;20520;-65
2021/11/12 15:34:07;;;;;;;14.90;12.37;;;;;;;;;;5058700;28;20413;-63
2021/11/12 15:36:34;;;;;;;18.77;12.20;;;;;;;;;;5056915;28;20405;-66
2021/11/12 15:39:11;;;;;;;24.70;16.00;;;;;;;;;;5057602;28;20519;-65
2021/11/12 15:44:21;;;;;;;21.07;13.47;;;;;;;;;;5050375;28;21202;-69
2021/11/12 15:46:50;;;;;;;19.97;13.67;;;;;;;;;;5052652;28;20561;-69
2021/11/12 15:49:21;;;;;;;21.50;14.73;;;;;;;;;;5062480;28;20429;-71
2021/11/12 15:52:37;;;;;;;20.57;13.80;;;;;;;;;;5044041;28;20433;-71
2021/11/12 15:54:57;;;;;;;23.47;14.83;;;;;;;;;;5035977;28;20601;-73
2021/11/12 16:00:17;;;;;;;21.47;14.00;;;;;;;;;;5043493;28;20456;-68
2021/11/12 16:26:12;;;;;;;18.83;14.67;;;;;;;;;;5061356;28;20402;-67
2021/11/12 16:29:13;;;;;;;21.70;14.57;;;;;;;;;;5055197;28;20548;-68
2021/11/12 16:31:28;;;;;;;23.30;13.80;;;;;;;;;;5053417;28;20513;-67
2021/11/12 16:33:56;;;;;;;22.80;14.73;;;;;;;;;;5055424;28;20488;-65
2021/11/12 16:36:22;;;;;;;23.70;14.20;;;;;;;;;;5055149;28;20542;-66
2021/11/12 16:38:49;;;;;;;19.67;14.90;;;;;;;;;;5054083;28;20445;-67
2021/11/12 16:41:22;;;;;;;25.90;14.33;;;;;;;;;;5050458;28;20422;-66
2021/11/12 16:47:08;;;;;;;19.30;15.00;;;;;;;;;;5042442;28;20471;-66
2021/11/12 16:52:39;;;;;;;20.23;14.20;;;;;;;;;;5051668;28;20476;-67
2021/11/12 17:02:57;;;;;;;19.23;12.27;;;;;;;;;;5051924;28;20421;-65
2021/11/12 17:08:26;;;;;;;21.20;15.83;;;;;;;;;;5062939;28;20437;-66
2021/11/12 17:48:41;;;;;;;21.43;14.20;;;;;;;;;;5053716;28;20545;-66
2021/11/12 17:51:29;;;;;;;23.40;14.50;;;;;;;;;;5037397;28;20410;-66
2021/11/12 18:02:31;;;;;;;27.50;14.60;;;;;;;;;;5034250;28;20486;-65
2021/11/12 21:46:44;;;;;;;22.60;14.80;;;;;;;;;;5035706;28;20401;-65
2021/11/12 21:49:10;;;;;;;21.13;15.53;;;;;;;;;;5054643;28;20446;-66
2021/11/12 21:51:41;;;;;;;20.33;14.87;;;;;;;;;;5055223;28;20433;-65
2021/11/12 21:54:07;;;;;;;24.27;16.47;;;;;;;;;;5047520;28;20390;-66
2021/11/12 21:56:33;;;;;;;20.77;14.43;;;;;;;;;;5035103;28;20478;-66
2021/11/12 21:58:59;;;;;;;25.80;15.50;;;;;;;;;;5037592;28;20473;-65
2021/11/12 22:01:26;;;;;;;24.20;16.40;;;;;;;;;;5035367;28;20467;-65
2021/11/12 22:03:52;;;;;;;19.47;14.43;;;;;;;;;;5035805;28;20542;-65
2021/11/12 22:06:20;;;;;;;19.63;14.30;;;;;;;;;;5035476;28;20418;-65
2021/11/12 22:08:46;;;;;;;19.87;15.27;;;;;;;;;;5044223;28;20450;-65
2021/11/12 22:11:12;;;;;;;26.53;14.57;;;;;;;;;;5054771;28;20772;-65
2021/11/12 22:13:39;;;;;;;21.63;15.67;;;;;;;;;;5047033;28;20411;-65
2021/11/12 22:16:06;;;;;;;21.00;14.03;;;;;;;;;;5035190;28;20403;-65
2021/11/12 22:18:32;;;;;;;21.77;15.80;;;;;;;;;;5038331;28;20503;-65
2021/11/12 22:20:58;;;;;;;23.67;14.67;;;;;;;;;;5055599;28;20408;-65
2021/11/12 22:23:25;;;;;;;20.60;15.10;;;;;;;;;;5053096;28;20425;-66
2021/11/12 22:25:51;;;;;;;20.70;15.90;;;;;;;;;;5054459;28;20408;-66
2021/11/12 22:28:18;;;;;;;21.87;14.53;;;;;;;;;;5054791;28;20456;-65
2021/11/12 22:30:45;;;;;;;19.93;14.60;;;;;;;;;;5054096;28;20398;-65
2021/11/12 22:33:11;;;;;;;20.10;13.90;;;;;;;;;;5050188;28;20833;-65
2021/11/12 22:35:37;;;;;;;19.27;12.87;;;;;;;;;;5034314;28;20395;-65
2021/11/12 22:38:05;;;;;;;17.17;12.20;;;;;;;;;;5035726;28;20529;-65
2021/11/12 22:40:31;;;;;;;19.40;13.10;;;;;;;;;;5054241;28;20787;-65
2021/11/12 22:42:57;;;;;;;20.93;14.63;;;;;;;;;;5049735;28;20429;-65
2021/11/12 22:45:23;;;;;;;20.33;14.77;;;;;;;;;;5034253;28;20403;-65
2021/11/12 22:47:49;;;;;;;17.30;13.17;;;;;;;;;;5034310;28;20512;-65
2021/11/12 22:50:16;;;;;;;21.37;14.50;;;;;;;;;;5051853;28;20417;-65
2021/11/12 22:52:42;;;;;;;19.07;13.40;;;;;;;;;;5049915;28;20423;-65
2021/11/12 22:55:09;;;;;;;22.00;14.33;;;;;;;;;;5034411;28;20420;-66
2021/11/12 22:57:35;;;;;;;20.37;15.23;;;;;;;;;;5034085;28;20410;-65
2021/11/12 23:00:04;;;;;;;20.03;14.37;;;;;;;;;;5036690;28;20970;-65
2021/11/12 23:02:30;;;;;;;22.40;15.77;;;;;;;;;;5034943;28;20836;-67
2021/11/12 23:04:57;;;;;;;18.50;13.57;;;;;;;;;;5036349;28;20518;-65
2021/11/12 23:07:23;;;;;;;19.43;15.03;;;;;;;;;;5034153;28;20542;-66
2021/11/12 23:09:49;;;;;;;22.30;15.10;;;;;;;;;;5033692;28;20764;-65
2021/11/12 23:12:15;;;;;;;25.10;15.57;;;;;;;;;;5042253;28;20849;-67
2021/11/12 23:14:41;;;;;;;22.33;16.17;;;;;;;;;;5033765;28;20521;-66
2021/11/12 23:17:07;;;;;;;21.67;15.50;;;;;;;;;;5033491;28;20433;-66
2021/11/12 23:19:34;;;;;;;20.87;13.97;;;;;;;;;;5050815;28;20401;-66
2021/11/12 23:22:00;;;;;;;20.60;14.60;;;;;;;;;;5052142;28;20460;-67
2021/11/12 23:24:26;;;;;;;21.23;14.20;;;;;;;;;;5053314;28;20460;-65
2021/11/12 23:26:52;;;;;;;20.37;13.70;;;;;;;;;;5053212;28;20477;-65
2021/11/12 23:29:18;;;;;;;25.63;15.60;;;;;;;;;;5052966;28;20481;-65
2021/11/12 23:31:44;;;;;;;24.00;15.50;;;;;;;;;;5052100;28;20418;-68
2021/11/12 23:34:10;;;;;;;21.70;14.57;;;;;;;;;;5053215;28;20524;-66
2021/11/12 23:36:37;;;;;;;17.30;13.20;;;;;;;;;;5053102;28;20528;-66
2021/11/12 23:39:03;;;;;;;24.63;16.77;;;;;;;;;;5053293;28;20434;-66
2021/11/12 23:41:29;;;;;;;23.67;15.60;;;;;;;;;;5047257;28;20411;-66
2021/11/12 23:43:55;;;;;;;21.10;15.00;;;;;;;;;;5033408;28;20402;-66
2021/11/12 23:46:21;;;;;;;25.80;15.87;;;;;;;;;;5033174;28;20452;-67
2021/11/12 23:48:47;;;;;;;24.03;15.30;;;;;;;;;;5033051;28;20450;-66
2021/11/12 23:51:14;;;;;;;26.13;16.37;;;;;;;;;;5038798;28;20463;-67
2021/11/12 23:53:40;;;;;;;21.10;14.47;;;;;;;;;;5052861;28;20395;-66
2021/11/12 23:56:06;;;;;;;19.07;13.67;;;;;;;;;;5052891;28;20422;-66
2021/11/12 23:58:32;;;;;;;21.27;14.80;;;;;;;;;;5052809;28;20398;-66
